Аэропорт: Абакан. Абакан

ICAO: UNAA

METAR:
2018/07/16 20:00
UNAA 162000Z 33003MPS CAVOK 15/09 Q1004 R02/090065 NOSIG RMK QFE731
METAR:
2018/07/16 18:21
TAF UNAA 161655Z 1618/1718 35003G10MPS 9999 SCT025CB